Time;durP1;ratioP1;P1;durP2;ratioP2;P2;SDS_P1;SDS_P2;PMS_P1;PMS_P2;Temp;Humidity;BMP_temperature;BMP_pressure;BME280_temperature;BME280_humidity;BME280_pressure;Samples;Min_cycle;Max_cycle;Signal;HPM_P1;HPM_P2
2022/08/07 00:00:52;;;;;;;2.05;0.55;;;19.70;65.70;;;;;;5116922;28;20084;-67
2022/08/07 00:03:18;;;;;;;1.80;0.57;;;19.60;65.70;;;;;;5115522;28;20476;-67
2022/08/07 00:05:44;;;;;;;1.33;0.80;;;19.60;66.00;;;;;;5116767;28;20089;-67
2022/08/07 00:08:09;;;;;;;1.05;0.52;;;19.60;65.90;;;;;;5116811;28;20023;-67
2022/08/07 00:10:35;;;;;;;1.33;0.80;;;19.60;66.10;;;;;;5116674;28;20034;-67
2022/08/07 00:13:04;;;;;;;1.00;0.60;;;19.50;66.40;;;;;;5117613;28;20059;-66
2022/08/07 00:15:31;;;;;;;2.53;0.60;;;19.30;66.50;;;;;;5117591;27;20468;-66
2022/08/07 00:17:56;;;;;;;3.17;1.23;;;19.30;67.00;;;;;;5116102;28;20032;-66
2022/08/07 00:20:22;;;;;;;1.42;0.50;;;19.40;66.90;;;;;;5118640;28;20031;-67
2022/08/07 00:22:48;;;;;;;1.13;0.70;;;19.30;66.90;;;;;;5118037;28;20036;-67
2022/08/07 00:25:13;;;;;;;2.05;0.82;;;19.30;67.10;;;;;;5118024;28;20042;-67
2022/08/07 00:27:39;;;;;;;3.65;1.08;;;19.40;67.00;;;;;;5116123;28;20024;-67
2022/08/07 00:30:05;;;;;;;1.70;0.57;;;19.40;67.20;;;;;;5115877;28;20072;-67
2022/08/07 00:32:31;;;;;;;2.25;0.80;;;19.10;67.50;;;;;;5116439;28;20023;-67
2022/08/07 00:34:56;;;;;;;3.40;0.80;;;18.80;68.20;;;;;;5116488;28;20424;-67
2022/08/07 00:37:23;;;;;;;5.28;1.83;;;18.70;68.90;;;;;;5116341;28;20032;-67
2022/08/07 00:39:49;;;;;;;1.75;0.68;;;18.50;69.30;;;;;;5114876;28;20026;-67
2022/08/07 00:42:15;;;;;;;3.05;0.70;;;18.60;70.20;;;;;;5115243;28;20110;-67
2022/08/07 00:44:41;;;;;;;3.40;0.60;;;18.40;70.40;;;;;;5115194;28;20020;-67
2022/08/07 00:47:07;;;;;;;1.90;0.50;;;18.30;70.20;;;;;;5114722;28;20528;-67
2022/08/07 00:49:33;;;;;;;2.05;0.50;;;18.10;70.50;;;;;;5116301;28;20111;-67
2022/08/07 00:51:59;;;;;;;0.98;0.80;;;17.90;70.70;;;;;;5118325;28;20189;-67
2022/08/07 00:54:24;;;;;;;1.60;0.80;;;18.00;70.90;;;;;;5117810;28;20051;-67
2022/08/07 00:56:50;;;;;;;3.92;0.85;;;17.90;71.10;;;;;;5116784;28;20099;-67
2022/08/07 00:59:19;;;;;;;1.52;0.68;;;17.80;71.00;;;;;;5115554;28;20042;-67
2022/08/07 01:01:47;;;;;;;2.28;0.82;;;17.70;71.60;;;;;;5116264;28;20548;-65
2022/08/07 01:04:14;;;;;;;1.33;0.70;;;17.70;71.60;;;;;;5115475;28;20106;-65
2022/08/07 01:06:40;;;;;;;1.80;0.60;;;17.60;71.60;;;;;;5114149;28;20058;-65
2022/08/07 01:09:05;;;;;;;1.20;0.70;;;17.50;72.30;;;;;;5115592;28;20434;-65
2022/08/07 01:11:32;;;;;;;3.97;1.15;;;17.40;72.80;;;;;;5117567;28;20084;-65
2022/08/07 01:13:57;;;;;;;2.22;0.70;;;17.20;72.90;;;;;;5116413;28;20030;-65
2022/08/07 01:16:23;;;;;;;1.10;0.63;;;17.30;72.90;;;;;;5113925;28;20028;-65
2022/08/07 01:18:49;;;;;;;2.38;0.70;;;17.40;73.00;;;;;;5115440;28;20339;-65
2022/08/07 01:21:16;;;;;;;1.75;0.60;;;17.30;72.90;;;;;;5114312;28;20122;-65
2022/08/07 01:23:43;;;;;;;1.02;0.60;;;17.20;73.20;;;;;;5115501;28;20027;-64
2022/08/07 01:26:12;;;;;;;1.90;0.90;;;17.40;73.20;;;;;;5115632;28;20098;-64
2022/08/07 01:28:46;;;;;;;1.73;0.70;;;17.40;73.10;;;;;;5115082;28;20114;-64
2022/08/07 01:31:12;;;;;;;6.78;0.68;;;17.50;72.60;;;;;;5115586;28;20063;-64
2022/08/07 01:33:39;;;;;;;1.17;0.50;;;17.60;72.40;;;;;;5115029;28;20023;-64
2022/08/07 01:36:08;;;;;;;3.95;0.60;;;17.70;72.20;;;;;;5115148;28;20031;-64
2022/08/07 01:38:34;;;;;;;1.30;0.60;;;17.80;72.20;;;;;;5115056;28;20019;-64
2022/08/07 01:41:01;;;;;;;;;;;17.80;72.00;;;;;;5114065;28;20020;-64
2022/08/07 01:43:28;;;;;;;2.45;0.50;;;17.80;71.90;;;;;;5115128;28;19903;-64
2022/08/07 01:45:54;;;;;;;3.50;0.60;;;17.80;72.00;;;;;;5113379;28;20040;-63
2022/08/07 01:48:20;;;;;;;;;;;17.70;72.20;;;;;;5115484;28;20034;-64
2022/08/07 01:50:51;;;;;;;2.58;0.60;;;17.70;72.40;;;;;;5113709;28;19907;-64
2022/08/07 01:53:20;;;;;;;1.55;0.60;;;17.80;72.20;;;;;;5114767;28;20015;-64
2022/08/07 01:55:50;;;;;;;2.47;0.70;;;17.90;72.10;;;;;;5115130;28;20098;-64
2022/08/07 01:58:20;;;;;;;1.30;0.60;;;17.90;72.00;;;;;;5113014;28;20116;-65
2022/08/07 02:00:56;;;;;;;1.50;0.60;;;17.90;72.00;;;;;;5113087;28;20031;-64
2022/08/07 02:03:23;;;;;;;0.82;0.43;;;17.70;72.60;;;;;;5113213;28;20118;-64
2022/08/07 02:05:57;;;;;;;1.17;0.50;;;17.60;72.70;;;;;;5114523;28;20030;-64
2022/08/07 02:08:25;;;;;;;1.63;0.73;;;17.60;73.00;;;;;;5114582;28;20027;-64
2022/08/07 02:10:55;;;;;;;2.15;0.60;;;17.60;72.90;;;;;;5112980;28;20024;-64
2022/08/07 02:13:23;;;;;;;1.35;0.60;;;17.70;72.70;;;;;;5114686;28;20107;-64
2022/08/07 02:15:50;;;;;;;2.05;0.80;;;17.60;72.70;;;;;;5114307;28;20020;-64
2022/08/07 02:18:18;;;;;;;1.70;0.88;;;17.70;72.70;;;;;;5114647;28;20044;-65
2022/08/07 02:20:46;;;;;;;1.30;0.40;;;17.60;72.70;;;;;;5113301;28;20023;-64
2022/08/07 02:23:13;;;;;;;1.35;0.65;;;17.60;72.70;;;;;;5112990;28;20084;-64
2022/08/07 02:25:40;;;;;;;3.08;0.80;;;17.60;72.60;;;;;;5114516;28;20032;-64
2022/08/07 02:28:07;;;;;;;3.25;0.50;;;17.40;72.90;;;;;;5114277;27;20055;-64
2022/08/07 02:30:35;;;;;;;4.20;0.82;;;17.20;73.40;;;;;;5112876;28;20031;-64
2022/08/07 02:33:02;;;;;;;3.13;0.63;;;16.80;74.30;;;;;;5113226;28;20112;-64
2022/08/07 02:35:29;;;;;;;1.65;0.40;;;16.70;75.20;;;;;;5114567;28;20030;-64
2022/08/07 02:37:57;;;;;;;1.52;0.50;;;16.80;75.20;;;;;;5114635;28;20042;-65
2022/08/07 02:40:23;;;;;;;2.38;0.90;;;16.60;75.50;;;;;;5112786;28;20028;-64
2022/08/07 02:42:49;;;;;;;4.75;1.25;;;16.70;75.60;;;;;;5113066;28;20027;-64
2022/08/07 02:45:17;;;;;;;0.70;0.40;;;16.90;75.20;;;;;;5113854;28;20028;-65
2022/08/07 02:47:43;;;;;;;1.90;0.80;;;16.80;75.00;;;;;;5113521;28;20059;-64
2022/08/07 02:50:09;;;;;;;2.83;0.65;;;17.00;74.70;;;;;;5114381;28;20043;-64
2022/08/07 02:52:47;;;;;;;1.95;0.68;;;17.00;74.50;;;;;;5114245;28;20024;-65
2022/08/07 02:55:20;;;;;;;1.10;0.47;;;17.10;74.50;;;;;;5114446;28;20027;-65
2022/08/07 02:57:47;;;;;;;1.15;0.43;;;17.10;74.30;;;;;;5114022;28;20034;-64
2022/08/07 03:00:14;;;;;;;2.70;0.40;;;17.10;74.30;;;;;;5112294;28;20043;-64
2022/08/07 03:02:44;;;;;;;1.52;0.60;;;17.00;74.60;;;;;;5113803;28;20051;-64
2022/08/07 03:05:12;;;;;;;1.20;0.50;;;17.00;74.50;;;;;;5113915;28;20027;-64
2022/08/07 03:07:39;;;;;;;1.85;0.60;;;17.00;74.70;;;;;;5113841;28;20027;-64
2022/08/07 03:10:06;;;;;;;2.75;1.20;;;17.00;74.80;;;;;;5113435;28;20040;-64
2022/08/07 03:12:34;;;;;;;1.00;0.50;;;17.10;74.60;;;;;;5113152;28;20020;-64
2022/08/07 03:15:00;;;;;;;1.67;0.68;;;17.00;74.80;;;;;;5113841;28;20047;-64
2022/08/07 03:17:26;;;;;;;;;;;16.90;75.10;;;;;;5112541;28;20020;-64
2022/08/07 03:19:52;;;;;;;2.65;0.70;;;17.00;75.10;;;;;;5113141;28;19927;-64
2022/08/07 03:22:20;;;;;;;1.08;0.57;;;17.10;74.90;;;;;;5113796;28;20031;-64
2022/08/07 03:24:46;;;;;;;3.03;0.60;;;17.00;75.00;;;;;;5113171;28;20045;-64
2022/08/07 03:27:13;;;;;;;1.77;0.65;;;17.00;74.80;;;;;;5113239;28;20118;-64
2022/08/07 03:29:44;;;;;;;0.98;0.60;;;17.00;75.10;;;;;;5111895;28;20114;-64
2022/08/07 03:32:11;;;;;;;1.65;0.68;;;16.90;75.30;;;;;;5114097;28;20028;-65
2022/08/07 03:34:38;;;;;;;1.50;0.60;;;16.70;75.70;;;;;;5113746;28;20028;-65
2022/08/07 03:37:06;;;;;;;2.92;0.80;;;16.70;75.90;;;;;;5112151;28;20092;-64
2022/08/07 03:39:34;;;;;;;1.77;0.65;;;16.70;75.90;;;;;;5113113;28;20059;-64
2022/08/07 03:42:02;;;;;;;4.40;1.58;;;16.40;76.40;;;;;;5113270;28;20030;-64
2022/08/07 03:44:27;;;;;;;2.05;0.90;;;16.40;77.20;;;;;;5114057;28;20076;-64
2022/08/07 03:46:53;;;;;;;2.70;0.75;;;16.20;77.30;;;;;;5113155;28;20028;-64
2022/08/07 03:49:19;;;;;;;1.42;0.65;;;16.10;77.90;;;;;;5112124;28;20088;-64
2022/08/07 03:51:46;;;;;;;2.10;1.00;;;16.20;78.20;;;;;;5112803;28;20569;-65
2022/08/07 03:54:12;;;;;;;1.67;1.10;;;16.30;77.80;;;;;;5113436;28;20519;-65
2022/08/07 03:56:39;;;;;;;2.17;0.80;;;16.30;77.90;;;;;;5115161;28;20027;-65
2022/08/07 03:59:05;;;;;;;1.30;0.88;;;16.20;78.20;;;;;;5116434;28;20047;-65
2022/08/07 04:01:32;;;;;;;0.93;0.70;;;16.00;78.80;;;;;;5117229;28;20333;-64
2022/08/07 04:03:58;;;;;;;1.45;0.75;;;16.00;79.40;;;;;;5116794;28;20020;-65
2022/08/07 04:06:24;;;;;;;1.95;0.90;;;15.80;80.10;;;;;;5117311;27;20433;-65
2022/08/07 04:08:51;;;;;;;1.85;0.80;;;15.70;80.70;;;;;;5115371;28;20031;-65
2022/08/07 04:11:16;;;;;;;;;;;15.90;80.70;;;;;;5116938;28;20023;-65
2022/08/07 04:13:43;;;;;;;2.13;0.90;;;16.10;80.10;;;;;;5117004;28;19903;-64
2022/08/07 04:16:09;;;;;;;1.38;0.90;;;16.30;79.60;;;;;;5116244;28;20077;-64
2022/08/07 04:18:34;;;;;;;1.77;0.90;;;16.30;79.30;;;;;;5117331;28;20023;-64
2022/08/07 04:21:00;;;;;;;3.35;0.85;;;16.20;79.90;;;;;;5116718;28;20078;-65
2022/08/07 04:23:26;;;;;;;2.97;1.30;;;15.90;80.50;;;;;;5116500;28;20043;-64
2022/08/07 04:25:52;;;;;;;4.15;0.80;;;15.60;81.80;;;;;;5114704;28;20110;-65
2022/08/07 04:28:19;;;;;;;1.30;0.88;;;15.70;82.30;;;;;;5116254;28;20028;-64
2022/08/07 04:30:49;;;;;;;2.28;0.85;;;15.80;81.90;;;;;;5114316;28;20032;-64
2022/08/07 04:33:16;;;;;;;1.55;0.80;;;15.80;82.20;;;;;;5115352;28;20432;-64
2022/08/07 04:35:45;;;;;;;1.83;1.00;;;15.80;82.20;;;;;;5116065;28;20117;-64
2022/08/07 04:38:11;;;;;;;2.40;0.93;;;15.80;82.60;;;;;;5115819;28;20016;-64
2022/08/07 04:40:42;;;;;;;5.43;1.00;;;15.60;83.40;;;;;;5114265;28;20023;-65
2022/08/07 04:43:09;;;;;;;3.25;0.98;;;15.80;83.40;;;;;;5114030;28;20028;-65
2022/08/07 04:45:54;;;;;;;1.38;0.93;;;15.90;83.20;;;;;;5113990;28;20031;-64
2022/08/07 04:48:43;;;;;;;3.03;1.10;;;16.00;82.70;;;;;;5107734;28;20040;-64
2022/08/07 04:51:17;;;;;;;2.35;0.93;;;16.10;82.30;;;;;;5115441;27;20038;-64
2022/08/07 04:53:55;;;;;;;1.95;0.88;;;16.10;82.40;;;;;;5115532;28;20068;-64
2022/08/07 04:56:25;;;;;;;3.30;0.73;;;15.80;82.90;;;;;;5115265;28;20464;-64
2022/08/07 04:59:26;;;;;;;1.52;1.00;;;15.70;84.40;;;;;;5115233;28;20031;-64
2022/08/07 05:02:03;;;;;;;2.65;1.00;;;15.70;84.80;;;;;;5092036;28;20549;-64
2022/08/07 05:04:47;;;;;;;3.15;0.82;;;15.80;85.00;;;;;;5115129;28;20020;-64
2022/08/07 05:07:24;;;;;;;2.67;1.48;;;16.00;84.40;;;;;;5114933;28;20023;-64
2022/08/07 05:10:09;;;;;;;2.88;1.00;;;16.00;84.10;;;;;;5115433;28;20024;-64
2022/08/07 05:12:49;;;;;;;2.03;1.15;;;16.00;84.40;;;;;;5115170;28;20028;-64
2022/08/07 05:15:20;;;;;;;4.90;1.35;;;15.90;84.40;;;;;;5115194;28;20030;-64
2022/08/07 05:17:48;;;;;;;3.03;0.90;;;16.00;84.70;;;;;;5115012;28;20040;-66
2022/08/07 05:20:16;;;;;;;1.33;0.90;;;15.90;85.30;;;;;;5113297;28;20080;-66
2022/08/07 05:22:45;;;;;;;1.02;0.70;;;16.10;85.30;;;;;;5113185;28;20023;-66
2022/08/07 05:25:14;;;;;;;1.77;0.95;;;16.00;85.20;;;;;;5115120;28;20030;-65
2022/08/07 05:27:41;;;;;;;3.05;0.98;;;15.90;85.30;;;;;;5114557;28;20027;-65
2022/08/07 05:30:08;;;;;;;1.85;1.15;;;15.90;85.90;;;;;;5112925;28;20019;-66
2022/08/07 05:32:36;;;;;;;4.75;1.10;;;16.00;85.90;;;;;;5114651;28;20024;-66
2022/08/07 05:35:02;;;;;;;1.33;0.90;;;15.90;85.80;;;;;;5114460;28;20027;-66
2022/08/07 05:37:28;;;;;;;5.18;1.00;;;16.00;86.40;;;;;;5114520;28;20034;-66
2022/08/07 05:39:55;;;;;;;3.35;0.90;;;16.10;85.70;;;;;;5114298;28;20032;-66
2022/08/07 05:42:21;;;;;;;2.58;0.93;;;16.10;85.80;;;;;;5112932;28;20023;-66
2022/08/07 05:44:48;;;;;;;2.67;0.85;;;16.40;85.30;;;;;;5114446;28;20133;-66
2022/08/07 05:47:18;;;;;;;1.77;0.80;;;16.50;84.30;;;;;;5114254;28;20031;-66
2022/08/07 05:49:49;;;;;;;2.53;0.90;;;16.60;83.90;;;;;;5112810;28;20088;-65
2022/08/07 05:52:16;;;;;;;1.58;0.73;;;16.70;83.40;;;;;;5114118;28;20076;-65
2022/08/07 05:54:42;;;;;;;2.38;0.70;;;16.60;83.10;;;;;;5113942;28;20102;-66
2022/08/07 05:57:08;;;;;;;1.57;0.73;;;16.70;82.40;;;;;;5112553;28;20023;-66
2022/08/07 05:59:37;;;;;;;;;;;16.80;82.40;;;;;;5114579;28;20404;-67
2022/08/07 06:02:05;;;;;;;2.67;0.70;;;16.90;81.90;;;;;;5113908;28;20398;-67
2022/08/07 06:04:36;;;;;;;1.25;0.60;;;17.00;81.80;;;;;;5114381;28;20034;-66
2022/08/07 06:07:04;;;;;;;1.17;0.68;;;17.20;81.10;;;;;;5112698;28;20380;-67
2022/08/07 06:09:31;;;;;;;2.17;0.80;;;17.40;80.00;;;;;;5113750;28;20024;-67
2022/08/07 06:11:57;;;;;;;1.50;0.52;;;17.40;79.10;;;;;;5112425;28;20024;-66
2022/08/07 06:14:23;;;;;;;1.90;0.50;;;17.50;79.00;;;;;;5112595;28;20145;-66
2022/08/07 06:16:50;;;;;;;1.52;0.70;;;17.40;78.80;;;;;;5112261;28;20070;-66
2022/08/07 06:19:17;;;;;;;0.93;0.70;;;17.60;78.80;;;;;;5113073;28;20072;-67
2022/08/07 06:21:43;;;;;;;3.03;0.90;;;17.70;78.60;;;;;;5112290;28;20430;-67
2022/08/07 06:24:09;;;;;;;1.73;0.65;;;18.00;77.70;;;;;;5112334;28;20027;-67
2022/08/07 06:26:41;;;;;;;3.22;0.75;;;18.20;76.30;;;;;;5113868;28;20039;-67
2022/08/07 06:29:07;;;;;;;2.20;0.70;;;18.30;75.90;;;;;;5113917;28;20098;-67
2022/08/07 06:31:32;;;;;;;3.38;0.90;;;18.40;75.10;;;;;;5113387;28;20126;-66
2022/08/07 06:33:58;;;;;;;2.58;0.70;;;18.30;74.90;;;;;;5112675;28;20022;-66
2022/08/07 06:36:26;;;;;;;3.05;0.90;;;18.20;75.40;;;;;;5113715;28;20073;-66
2022/08/07 06:38:53;;;;;;;2.88;0.88;;;18.40;75.30;;;;;;5112305;28;20034;-66
2022/08/07 06:41:30;;;;;;;1.92;0.80;;;18.60;74.90;;;;;;5113602;28;20027;-66
2022/08/07 06:43:57;;;;;;;2.63;0.90;;;18.70;74.50;;;;;;5112016;28;20119;-66
2022/08/07 06:46:23;;;;;;;2.40;0.90;;;18.80;74.70;;;;;;5113303;28;20379;-67
2022/08/07 06:48:49;;;;;;;1.70;0.80;;;18.80;74.10;;;;;;5113352;28;20027;-67
2022/08/07 06:51:20;;;;;;;6.05;0.80;;;18.80;74.50;;;;;;5113536;28;20039;-67
2022/08/07 06:53:47;;;;;;;1.33;0.60;;;18.90;74.40;;;;;;5115188;28;20023;-67
2022/08/07 06:56:15;;;;;;;2.10;0.75;;;18.90;74.20;;;;;;5114419;28;20047;-66
2022/08/07 06:58:42;;;;;;;3.00;0.80;;;19.00;74.40;;;;;;5115081;28;20026;-67
2022/08/07 07:01:09;;;;;;;2.03;0.95;;;19.10;74.50;;;;;;5113119;28;20069;-67
2022/08/07 07:03:39;;;;;;;2.50;1.00;;;19.20;74.50;;;;;;5126425;22;20032;-67
2022/08/07 07:06:07;;;;;;;4.75;1.15;;;19.40;74.60;;;;;;5093475;28;20052;-66
2022/08/07 07:08:33;;;;;;;1.20;0.80;;;19.50;74.70;;;;;;5093361;28;20024;-65
2022/08/07 07:10:59;;;;;;;1.38;0.80;;;19.60;73.80;;;;;;5093170;28;20104;-66
2022/08/07 07:13:39;;;;;;;1.10;0.60;;;19.70;73.90;;;;;;5093513;28;20020;-66
2022/08/07 07:16:11;;;;;;;2.85;0.90;;;19.70;73.90;;;;;;5092890;28;20425;-66
2022/08/07 07:18:45;;;;;;;2.58;1.05;;;19.80;73.60;;;;;;5092198;28;20027;-67
2022/08/07 07:21:23;;;;;;;3.97;1.00;;;19.80;74.10;;;;;;5093408;28;20103;-66
2022/08/07 07:23:50;;;;;;;2.20;1.02;;;20.10;73.80;;;;;;5093422;28;20539;-66
2022/08/07 07:26:18;;;;;;;1.13;0.82;;;20.10;73.70;;;;;;5092685;28;20032;-65
2022/08/07 07:28:54;;;;;;;2.97;1.05;;;20.10;73.50;;;;;;5092925;28;20035;-66
2022/08/07 07:31:30;;;;;;;3.30;1.88;;;20.20;74.10;;;;;;5095525;28;20380;-66
2022/08/07 07:34:02;;;;;;;4.97;1.30;;;20.30;74.20;;;;;;5096527;28;20048;-69
2022/08/07 07:36:28;;;;;;;1.98;1.30;;;20.40;74.30;;;;;;5096810;28;20085;-69
2022/08/07 07:38:55;;;;;;;3.00;1.25;;;20.40;74.60;;;;;;5095340;28;20075;-70
2022/08/07 07:41:23;;;;;;;2.13;1.13;;;20.50;74.50;;;;;;5095080;28;20024;-69
2022/08/07 07:43:51;;;;;;;3.72;1.77;;;20.70;74.80;;;;;;5094972;28;20078;-69
2022/08/07 07:46:17;;;;;;;5.25;1.45;;;20.80;74.50;;;;;;5103164;28;20028;-70
2022/08/07 07:48:45;;;;;;;2.50;1.17;;;20.90;73.60;;;;;;5100743;28;20108;-69
2022/08/07 07:51:11;;;;;;;2.95;1.30;;;20.90;73.70;;;;;;5096194;28;20115;-71
2022/08/07 07:53:42;;;;;;;3.17;1.40;;;20.90;74.20;;;;;;5096387;28;20024;-70
2022/08/07 07:56:09;;;;;;;6.65;1.50;;;21.10;74.00;;;;;;5095436;28;20016;-72
2022/08/07 07:58:37;;;;;;;1.30;1.20;;;21.20;73.70;;;;;;5097115;28;20024;-71
2022/08/07 08:01:05;;;;;;;5.35;1.20;;;21.30;73.60;;;;;;5095547;28;20061;-71
2022/08/07 08:03:32;;;;;;;2.17;1.10;;;21.40;73.60;;;;;;5096458;28;20058;-71
2022/08/07 08:05:59;;;;;;;2.72;1.55;;;21.50;74.10;;;;;;5096244;28;20063;-71
2022/08/07 08:08:29;;;;;;;1.70;1.38;;;21.60;75.20;;;;;;5096488;28;20479;-71
2022/08/07 08:10:55;;;;;;;3.10;1.85;;;21.70;73.30;;;;;;5094980;28;20028;-71
2022/08/07 08:13:23;;;;;;;;;;;21.70;73.70;;;;;;5095418;28;20016;-71
2022/08/07 08:15:50;;;;;;;3.42;1.58;;;21.90;73.80;;;;;;5094984;28;20295;-71
2022/08/07 08:18:19;;;;;;;3.30;1.20;;;22.00;73.20;;;;;;5095108;28;20475;-69
2022/08/07 08:20:46;;;;;;;2.03;1.10;;;22.20;73.10;;;;;;5096007;28;20366;-69
2022/08/07 08:28:50;;;;;;;2.28;1.42;;;23.10;72.10;;;;;;5096082;28;20085;-69
2022/08/07 08:31:24;;;;;;;1.73;1.15;;;24.90;69.00;;;;;;5097058;28;20093;-70
2022/08/07 08:33:53;;;;;;;2.22;1.20;;;28.20;63.20;;;;;;5107215;28;20035;-70
2022/08/07 08:36:23;;;;;;;3.25;1.15;;;31.20;59.00;;;;;;5107274;28;20233;-71
2022/08/07 08:38:49;;;;;;;1.25;1.00;;;33.30;55.40;;;;;;5109204;28;20020;-71
2022/08/07 08:41:21;;;;;;;1.58;1.25;;;34.30;53.40;;;;;;5110532;28;20032;-71
2022/08/07 08:44:04;;;;;;;2.08;1.10;;;36.20;52.00;;;;;;5098110;28;20085;-71
2022/08/07 08:46:46;;;;;;;1.50;1.00;;;38.40;49.90;;;;;;5093897;28;20059;-71
2022/08/07 08:49:32;;;;;;;1.60;1.27;;;39.60;48.00;;;;;;5093800;28;20039;-70
2022/08/07 08:52:27;;;;;;;2.08;0.88;;;40.30;46.90;;;;;;5095021;28;20028;-70
2022/08/07 08:55:08;;;;;;;1.42;1.02;;;38.90;46.70;;;;;;5093745;28;20024;-70
2022/08/07 08:57:43;;;;;;;1.52;1.10;;;39.00;47.10;;;;;;5098462;28;20025;-70
2022/08/07 09:00:10;;;;;;;2.40;1.10;;;38.40;47.00;;;;;;5095488;28;20024;-69
2022/08/07 09:02:40;;;;;;;1.77;0.85;;;38.80;47.40;;;;;;5094761;28;20418;-69
2022/08/07 09:05:29;;;;;;;1.30;1.10;;;39.00;46.80;;;;;;5094945;28;20024;-70
2022/08/07 09:07:58;;;;;;;1.50;1.00;;;39.60;46.50;;;;;;5094621;28;20104;-70
2022/08/07 09:10:56;;;;;;;2.08;1.13;;;39.10;46.00;;;;;;5094749;28;20023;-70
2022/08/07 09:13:36;;;;;;;1.73;1.10;;;38.50;46.40;;;;;;5094972;28;20380;-70
2022/08/07 09:16:21;;;;;;;1.95;1.17;;;38.40;46.60;;;;;;5095147;28;20028;-70
2022/08/07 09:19:11;;;;;;;1.80;1.25;;;38.80;46.10;;;;;;5095330;28;20020;-70
2022/08/07 09:22:04;;;;;;;2.15;1.15;;;38.80;46.10;;;;;;5094814;28;20024;-71
2022/08/07 09:24:43;;;;;;;1.23;1.05;;;37.30;46.90;;;;;;5093064;28;20386;-70
2022/08/07 09:27:42;;;;;;;4.55;1.00;;;38.20;47.00;;;;;;5094345;28;20032;-70
2022/08/07 09:30:09;;;;;;;1.95;1.10;;;39.00;46.20;;;;;;5086169;28;20036;-70
2022/08/07 09:33:19;;;;;;;2.00;0.98;;;39.70;45.30;;;;;;5093035;28;20024;-70
2022/08/07 09:35:57;;;;;;;1.58;0.90;;;39.80;45.00;;;;;;5092965;28;20021;-71
2022/08/07 09:38:48;;;;;;;1.73;0.93;;;40.00;45.00;;;;;;5092819;28;20030;-70
2022/08/07 09:41:23;;;;;;;5.00;0.98;;;40.50;44.00;;;;;;5093999;28;20077;-70
2022/08/07 09:44:26;;;;;;;1.30;1.05;;;40.50;44.10;;;;;;5092853;28;20123;-69
2022/08/07 09:47:09;;;;;;;4.43;0.90;;;39.90;43.80;;;;;;5094159;28;20392;-69
2022/08/07 09:50:00;;;;;;;1.35;0.90;;;38.90;43.30;;;;;;5094773;28;20028;-70
2022/08/07 09:52:41;;;;;;;3.25;1.02;;;38.20;44.00;;;;;;5092743;28;20031;-70
2022/08/07 09:55:23;;;;;;;1.70;0.90;;;38.80;43.60;;;;;;5093088;28;20020;-69
2022/08/07 09:58:17;;;;;;;1.63;1.00;;;37.80;43.80;;;;;;5092649;28;20032;-69
2022/08/07 10:00:56;;;;;;;1.77;1.00;;;38.20;44.10;;;;;;5093992;28;20500;-71
2022/08/07 10:03:54;;;;;;;1.60;1.10;;;38.20;45.20;;;;;;5092328;28;20050;-72
2022/08/07 10:06:38;;;;;;;2.08;0.90;;;39.10;43.70;;;;;;5083453;28;20090;-73
2022/08/07 10:09:52;;;;;;;1.40;0.80;;;37.90;43.10;;;;;;5094167;28;20027;-73
2022/08/07 10:12:39;;;;;;;3.38;0.80;;;37.70;43.50;;;;;;5034449;28;20029;-72
2022/08/07 10:15:10;;;;;;;2.00;0.80;;;37.60;43.00;;;;;;5021003;28;20033;-72
2022/08/07 10:18:13;;;;;;;1.10;0.77;;;37.20;42.90;;;;;;5031451;28;20045;-73
2022/08/07 10:21:31;;;;;;;1.40;0.68;;;37.30;42.10;;;;;;5014854;28;20048;-73
2022/08/07 10:24:18;;;;;;;2.40;0.70;;;36.30;42.50;;;;;;4937061;29;20031;-72
2022/08/07 10:27:05;;;;;;;2.95;1.05;;;35.70;42.20;;;;;;4953309;29;20050;-73
2022/08/07 10:29:48;;;;;;;0.88;0.70;;;36.00;42.50;;;;;;4953324;29;20044;-73
2022/08/07 10:32:29;;;;;;;1.30;0.60;;;36.00;42.00;;;;;;4936935;29;20031;-73
2022/08/07 10:35:09;;;;;;;1.80;0.82;;;35.90;42.70;;;;;;4953119;29;20142;-72
2022/08/07 10:38:00;;;;;;;0.80;0.57;;;36.20;42.80;;;;;;4952863;29;20042;-72
2022/08/07 10:40:56;;;;;;;1.90;0.75;;;37.30;42.40;;;;;;4950183;29;20043;-70
2022/08/07 10:43:51;;;;;;;1.38;0.65;;;37.10;42.20;;;;;;4973327;28;20141;-72
2022/08/07 10:46:25;;;;;;;1.77;0.98;;;37.60;42.10;;;;;;5011292;28;20121;-71
2022/08/07 10:49:13;;;;;;;2.05;0.80;;;36.70;42.90;;;;;;5011181;28;20078;-71
2022/08/07 10:52:01;;;;;;;1.83;0.50;;;36.40;42.60;;;;;;5011078;28;20442;-72
2022/08/07 10:54:45;;;;;;;1.33;0.77;;;35.70;42.90;;;;;;5011182;28;20052;-72
2022/08/07 10:57:38;;;;;;;3.15;0.98;;;35.80;42.90;;;;;;5011181;28;20033;-71
2022/08/07 11:00:08;;;;;;;1.13;0.65;;;35.80;42.50;;;;;;5093905;28;20084;-71
2022/08/07 11:02:38;;;;;;;1.25;0.70;;;35.00;43.20;;;;;;5091553;28;20495;-71
2022/08/07 11:05:21;;;;;;;0.57;0.50;;;34.60;43.80;;;;;;5093270;28;20024;-72
2022/08/07 11:08:09;;;;;;;2.17;0.60;;;35.30;43.50;;;;;;5097411;28;20446;-70
2022/08/07 11:10:44;;;;;;;1.05;0.60;;;35.20;43.40;;;;;;5097243;28;20059;-72
2022/08/07 11:13:31;;;;;;;1.90;0.68;;;34.70;43.60;;;;;;5095476;28;20028;-70
2022/08/07 11:16:09;;;;;;;1.25;0.50;;;34.50;43.80;;;;;;5095561;28;20042;-70
2022/08/07 11:18:48;;;;;;;1.95;0.95;;;32.30;46.10;;;;;;5097376;28;20452;-69
2022/08/07 11:21:28;;;;;;;2.60;0.70;;;30.60;47.10;;;;;;5095404;28;20119;-70
2022/08/07 11:24:07;;;;;;;2.67;0.90;;;29.30;48.10;;;;;;5095357;28;20391;-69
2022/08/07 11:26:38;;;;;;;0.88;0.70;;;28.80;48.60;;;;;;5096772;28;20028;-69
2022/08/07 11:29:09;;;;;;;1.95;0.90;;;28.60;48.90;;;;;;5095251;28;20020;-70
2022/08/07 11:31:47;;;;;;;2.17;0.82;;;28.40;48.90;;;;;;5097165;28;20031;-71
2022/08/07 11:34:45;;;;;;;1.85;0.70;;;28.30;49.30;;;;;;5096992;28;20016;-70
2022/08/07 11:37:32;;;;;;;1.23;0.70;;;28.30;49.60;;;;;;5034283;28;20044;-70
2022/08/07 11:40:12;;;;;;;0.95;0.55;;;28.30;49.00;;;;;;5018005;28;20056;-70
2022/08/07 11:42:59;;;;;;;0.93;0.55;;;28.20;49.40;;;;;;5017604;28;20589;-69
2022/08/07 11:45:57;;;;;;;2.83;0.80;;;28.00;49.20;;;;;;5034698;28;20089;-69
2022/08/07 11:48:39;;;;;;;0.77;0.68;;;27.90;48.50;;;;;;5034371;28;20431;-69
2022/08/07 11:51:30;;;;;;;1.92;0.50;;;27.90;49.00;;;;;;5034148;28;20116;-72
2022/08/07 11:54:24;;;;;;;1.90;0.73;;;27.70;48.80;;;;;;5017724;28;20026;-72
2022/08/07 11:57:15;;;;;;;2.13;0.70;;;27.70;48.40;;;;;;4997541;28;20030;-72
2022/08/07 11:59:59;;;;;;;2.13;0.50;;;27.50;48.60;;;;;;5017410;28;20052;-73
2022/08/07 12:02:46;;;;;;;1.20;0.60;;;27.60;49.10;;;;;;5034209;28;20111;-71
2022/08/07 12:05:21;;;;;;;0.65;0.47;;;27.70;48.70;;;;;;5034041;28;20472;-72
2022/08/07 12:08:03;;;;;;;0.82;0.70;;;27.70;48.70;;;;;;5017136;28;20025;-71
2022/08/07 12:11:13;;;;;;;1.67;0.70;;;27.70;48.40;;;;;;5033681;28;20025;-71
2022/08/07 12:14:03;;;;;;;0.57;0.57;;;27.70;48.40;;;;;;5005711;28;20045;-71
2022/08/07 12:16:40;;;;;;;1.25;0.70;;;27.70;48.40;;;;;;5092204;28;20480;-72
2022/08/07 12:19:24;;;;;;;1.17;0.60;;;27.70;48.40;;;;;;5094666;28;20028;-71
2022/08/07 12:22:20;;;;;;;1.88;0.50;;;27.60;48.40;;;;;;5094109;28;20054;-71
2022/08/07 12:27:58;;;;;;;1.38;0.70;;;27.60;48.20;;;;;;5095897;28;20054;-69
2022/08/07 12:30:28;;;;;;;0.90;0.63;;;27.70;48.40;;;;;;5095605;28;20027;-68
2022/08/07 12:33:05;;;;;;;2.42;0.60;;;27.90;48.30;;;;;;5095742;28;20381;-69
2022/08/07 12:35:32;;;;;;;1.65;1.00;;;28.00;48.30;;;;;;5095710;28;20069;-68
2022/08/07 12:37:59;;;;;;;1.00;0.65;;;28.20;48.00;;;;;;5097428;28;20089;-71
2022/08/07 12:40:28;;;;;;;0.85;0.60;;;28.30;47.40;;;;;;5104565;28;20124;-70
2022/08/07 12:42:57;;;;;;;0.70;0.70;;;28.20;46.50;;;;;;5096534;28;20032;-69
2022/08/07 12:45:30;;;;;;;4.50;0.60;;;28.20;47.20;;;;;;5095483;28;20081;-71
2022/08/07 12:48:10;;;;;;;1.92;0.60;;;28.20;46.70;;;;;;5095185;28;20182;-71
2022/08/07 12:50:40;;;;;;;0.55;0.50;;;28.10;46.60;;;;;;5095051;28;20032;-69
2022/08/07 12:53:41;;;;;;;0.85;0.47;;;28.20;45.70;;;;;;5093548;28;20047;-70
2022/08/07 12:56:27;;;;;;;1.30;0.50;;;28.30;45.30;;;;;;5094923;28;20408;-69
2022/08/07 12:58:53;;;;;;;3.38;0.75;;;28.30;45.20;;;;;;5095192;28;20381;-70
2022/08/07 13:01:24;;;;;;;0.98;0.68;;;28.40;46.50;;;;;;5093461;28;20484;-69
2022/08/07 13:04:18;;;;;;;1.35;0.70;;;28.40;46.80;;;;;;5093886;28;20415;-70
2022/08/07 13:07:02;;;;;;;4.68;0.80;;;28.10;47.10;;;;;;5094633;28;20028;-71
2022/08/07 13:10:05;;;;;;;1.58;0.45;;;28.20;46.80;;;;;;5093239;28;20016;-67
2022/08/07 13:12:36;;;;;;;3.42;0.60;;;28.30;46.60;;;;;;5093335;28;20031;-70
2022/08/07 13:15:27;;;;;;;0.90;0.68;;;28.30;46.50;;;;;;5094580;28;20022;-68
2022/08/07 13:18:17;;;;;;;2.08;0.50;;;28.50;46.60;;;;;;5094891;28;20016;-68
2022/08/07 13:20:49;;;;;;;1.50;0.50;;;28.40;46.40;;;;;;5094658;28;20098;-68
2022/08/07 13:23:19;;;;;;;1.63;0.60;;;28.30;46.60;;;;;;5096106;28;20059;-70
2022/08/07 13:25:52;;;;;;;2.55;0.73;;;28.20;46.60;;;;;;5094956;28;20028;-68
2022/08/07 13:28:34;;;;;;;0.68;0.60;;;28.30;47.10;;;;;;5093117;28;20040;-68